Livorno Express — ZCDV9 — position and weather

sailwx.info

Track history (hours):
 
Tides and Currents Weather Stations Pressure Air Temp Water Temp Dewpoint Dewpoint Depression Visibility Wind Speed Wind Dir Waves Ship Positions

Livorno Express

Last reported at 2015-Mar-03 21:22 UTC. Time now 2015-Mar-04 07:02 UTC.
Position N 42°51' E 009°58'.

Type: Ship (hazmat cat A). MMSI: 310541000.

Date/timePositionNaut miles runAvg speedWind from/ knotsBaromVisibWave heightAir tempDewpointWater temp
2015-Mar-03 21:22N 42°51' E 009°58'1316.1
2015-Mar-03 20:33N 43°03' E 010°03'1615.8
2015-Mar-03 19:33N 43°19' E 010°08'1414.1
2015-Mar-03 18:34N 43°32' E 010°15'4 3.6
2015-Mar-03 17:34N 43°34' E 010°18'0 0.0
2015-Mar-03 16:31N 43°34' E 010°18'0 0.0
2015-Mar-03 15:31N 43°34' E 010°18'0 0.0
2015-Mar-03 14:31N 43°34' E 010°18'0 0.0
2015-Mar-03 13:31N 43°34' E 010°18'0 0.0
2015-Mar-03 12:31N 43°34' E 010°18'0 0.0
2015-Mar-03 11:31N 43°34' E 010°18'0 0.0
2015-Mar-03 10:31N 43°34' E 010°18'0 0.0
2015-Mar-03 09:31N 43°34' E 010°18'0 0.0
2015-Mar-03 08:31N 43°34' E 010°18'0 0.0
2015-Mar-03 07:31N 43°34' E 010°18'0 0.0
2015-Mar-03 06:31N 43°34' E 010°18'0 0.4
2015-Mar-03 05:34N 43°34' E 010°18'6 6.4
2015-Mar-03 04:33N 43°30' E 010°12'1211.9
2015-Mar-03 03:33N 43°33' E 009°56'1515.5
2015-Mar-03 02:33N 43°39' E 009°37'1515.3
2015-Mar-03 01:34N 43°50' E 009°21'1615.6
2015-Mar-03 00:34N 44°01' E 009°07'1515.5
2015-Mar-02 23:34N 44°13' E 008°53'1313.1
2015-Mar-02 22:34N 44°25' E 008°45'2 1.6
2015-Mar-02 21:32N 44°25' E 008°47'0 0.0
2015-Mar-02 20:32N 44°25' E 008°47'0 0.0
2015-Mar-02 19:31N 44°25' E 008°47'0 0.0
2015-Mar-02 18:31N 44°25' E 008°47'0 0.0
2015-Mar-02 17:31N 44°25' E 008°47'0 0.0
2015-Mar-02 16:29N 44°25' E 008°47'0 0.0
2015-Mar-02 15:32N 44°25' E 008°47'0 0.0
2015-Mar-02 14:32N 44°25' E 008°47'0 0.0
2015-Mar-02 13:32N 44°25' E 008°47'0 0.0
2015-Mar-02 12:32N 44°25' E 008°47'0 0.0
2015-Mar-02 11:32N 44°25' E 008°47'0 0.0
2015-Mar-02 10:32N 44°25' E 008°47'0 0.0
2015-Mar-02 09:32N 44°25' E 008°47'0 0.0
2015-Mar-02 08:32N 44°25' E 008°47'0 0.0
2015-Mar-02 07:32N 44°25' E 008°47'0 0.0
2015-Mar-02 06:32N 44°25' E 008°47'1 0.7
2015-Mar-02 05:34N 44°25' E 008°46'4 4.4
2015-Mar-02 04:33N 44°21' E 008°43'1010.2
2015-Mar-02 03:34N 44°12' E 008°47'1716.6
2015-Mar-02 02:33N 43°55' E 008°52'1616.0
2015-Mar-02 01:34N 43°42' E 009°03'1616.4
2015-Mar-02 00:33N 43°30' E 009°19'1716.5
2015-Mar-01 23:33N 43°15' E 009°30'3517.7
2015-Mar-01 21:33N 42°43' E 009°48'21916.5
2015-Mar-01 08:14N 39°03' E 009°46'1516.7
2015-Mar-01 07:20N 38°55' E 009°29'1316.7
2015-Mar-01 06:33N 39°02' E 009°15'1312.7
2015-Mar-01 05:33N 39°12' E 009°05'1 1.2
2015-Mar-01 04:31N 39°13' E 009°04'0 0.0
2015-Mar-01 03:31N 39°13' E 009°04'0 0.0
2015-Mar-01 02:31N 39°13' E 009°04'0 0.0
2015-Mar-01 01:31N 39°13' E 009°04'0 0.0
2015-Mar-01 00:31N 39°13' E 009°04'0 0.0
2015-Feb-28 23:31N 39°13' E 009°04'0 0.0
2015-Feb-28 22:31N 39°13' E 009°04'0 0.0
2015-Feb-28 21:33N 39°13' E 009°04'0 0.0
2015-Feb-28 20:33N 39°13' E 009°04'0 0.0
2015-Feb-28 19:33N 39°13' E 009°04'0 0.0
2015-Feb-28 18:33N 39°13' E 009°04'0 0.0
2015-Feb-28 17:32N 39°13' E 009°04'0 0.0
2015-Feb-28 16:33N 39°13' E 009°04'0 0.0
2015-Feb-28 15:31N 39°13' E 009°04'0 0.0
2015-Feb-28 14:34N 39°13' E 009°04'0 0.0
2015-Feb-28 13:33N 39°13' E 009°04'0 0.0
2015-Feb-28 12:33N 39°13' E 009°04'0 0.0
2015-Feb-28 11:33N 39°13' E 009°04'0 0.0
2015-Feb-28 10:33N 39°13' E 009°04'0 0.0
2015-Feb-28 09:33N 39°13' E 009°04'0 0.0
2015-Feb-28 08:33N 39°13' E 009°04'0 0.0
2015-Feb-28 07:33N 39°13' E 009°04'0 0.0
2015-Feb-28 06:33N 39°13' E 009°04'0 0.4
2015-Feb-28 05:33N 39°13' E 009°05'5 4.5
2015-Feb-28 04:33N 39°08' E 009°07'7 7.1
2015-Feb-28 03:33N 39°04' E 009°14'7 7.2
2015-Feb-28 02:33N 38°59' E 009°21'13816.8
2015-Feb-27 18:21N 37°44' E 011°49'9516.2
2015-Feb-27 12:29N 36°50' E 013°26'53315.1
2015-Feb-26 01:08N 37°47' E 024°32'  
2015-Feb-23 18:22N 37°41' E 025°46'1416.2
2015-Feb-23 17:31N 37°28' E 025°52'3416.2
2015-Feb-23 15:25N 36°58' E 026°12'  
Track history (hours):
 
Tides and Currents Weather Stations Pressure Air Temp Water Temp Dewpoint Dewpoint Depression Visibility Wind Speed Wind Dir Waves Ship Positions

Livorno Express

Last reported at 2015-Mar-03 21:22 UTC. Time now 2015-Mar-04 07:02 UTC.
Position N 42°51' E 009°58'.

Type: Ship (hazmat cat A). MMSI: 310541000.

Date/timePositionNaut miles runAvg speedWind from/ knotsBaromVisibWave heightAir tempDewpointWater temp
2015-Mar-03 21:22N 42°51' E 009°58'1316.1
2015-Mar-03 20:33N 43°03' E 010°03'1615.8
2015-Mar-03 19:33N 43°19' E 010°08'1414.1
2015-Mar-03 18:34N 43°32' E 010°15'4 3.6
2015-Mar-03 17:34N 43°34' E 010°18'0 0.0
2015-Mar-03 16:31N 43°34' E 010°18'0 0.0
2015-Mar-03 15:31N 43°34' E 010°18'0 0.0
2015-Mar-03 14:31N 43°34' E 010°18'0 0.0
2015-Mar-03 13:31N 43°34' E 010°18'0 0.0
2015-Mar-03 12:31N 43°34' E 010°18'0 0.0
2015-Mar-03 11:31N 43°34' E 010°18'0 0.0
2015-Mar-03 10:31N 43°34' E 010°18'0 0.0
2015-Mar-03 09:31N 43°34' E 010°18'0 0.0
2015-Mar-03 08:31N 43°34' E 010°18'0 0.0
2015-Mar-03 07:31N 43°34' E 010°18'0 0.0
2015-Mar-03 06:31N 43°34' E 010°18'0 0.4
2015-Mar-03 05:34N 43°34' E 010°18'6 6.4
2015-Mar-03 04:33N 43°30' E 010°12'1211.9
2015-Mar-03 03:33N 43°33' E 009°56'1515.5
2015-Mar-03 02:33N 43°39' E 009°37'1515.3
2015-Mar-03 01:34N 43°50' E 009°21'1615.6
2015-Mar-03 00:34N 44°01' E 009°07'1515.5
2015-Mar-02 23:34N 44°13' E 008°53'1313.1
2015-Mar-02 22:34N 44°25' E 008°45'2 1.6
2015-Mar-02 21:32N 44°25' E 008°47'0 0.0
2015-Mar-02 20:32N 44°25' E 008°47'0 0.0
2015-Mar-02 19:31N 44°25' E 008°47'0 0.0
2015-Mar-02 18:31N 44°25' E 008°47'0 0.0
2015-Mar-02 17:31N 44°25' E 008°47'0 0.0
2015-Mar-02 16:29N 44°25' E 008°47'0 0.0
2015-Mar-02 15:32N 44°25' E 008°47'0 0.0
2015-Mar-02 14:32N 44°25' E 008°47'0 0.0
2015-Mar-02 13:32N 44°25' E 008°47'0 0.0
2015-Mar-02 12:32N 44°25' E 008°47'0 0.0
2015-Mar-02 11:32N 44°25' E 008°47'0 0.0
2015-Mar-02 10:32N 44°25' E 008°47'0 0.0
2015-Mar-02 09:32N 44°25' E 008°47'0 0.0
2015-Mar-02 08:32N 44°25' E 008°47'0 0.0
2015-Mar-02 07:32N 44°25' E 008°47'0 0.0
2015-Mar-02 06:32N 44°25' E 008°47'1 0.7
2015-Mar-02 05:34N 44°25' E 008°46'4 4.4
2015-Mar-02 04:33N 44°21' E 008°43'1010.2
2015-Mar-02 03:34N 44°12' E 008°47'1716.6
2015-Mar-02 02:33N 43°55' E 008°52'1616.0
2015-Mar-02 01:34N 43°42' E 009°03'1616.4
2015-Mar-02 00:33N 43°30' E 009°19'1716.5
2015-Mar-01 23:33N 43°15' E 009°30'3517.7
2015-Mar-01 21:33N 42°43' E 009°48'21916.5
2015-Mar-01 08:14N 39°03' E 009°46'1516.7
2015-Mar-01 07:20N 38°55' E 009°29'1316.7
2015-Mar-01 06:33N 39°02' E 009°15'1312.7
2015-Mar-01 05:33N 39°12' E 009°05'1 1.2
2015-Mar-01 04:31N 39°13' E 009°04'0 0.0
2015-Mar-01 03:31N 39°13' E 009°04'0 0.0
2015-Mar-01 02:31N 39°13' E 009°04'0 0.0
2015-Mar-01 01:31N 39°13' E 009°04'0 0.0
2015-Mar-01 00:31N 39°13' E 009°04'0 0.0
2015-Feb-28 23:31N 39°13' E 009°04'0 0.0
2015-Feb-28 22:31N 39°13' E 009°04'0 0.0
2015-Feb-28 21:33N 39°13' E 009°04'0 0.0
2015-Feb-28 20:33N 39°13' E 009°04'0 0.0
2015-Feb-28 19:33N 39°13' E 009°04'0 0.0
2015-Feb-28 18:33N 39°13' E 009°04'0 0.0
2015-Feb-28 17:32N 39°13' E 009°04'0 0.0
2015-Feb-28 16:33N 39°13' E 009°04'0 0.0
2015-Feb-28 15:31N 39°13' E 009°04'0 0.0
2015-Feb-28 14:34N 39°13' E 009°04'0 0.0
2015-Feb-28 13:33N 39°13' E 009°04'0 0.0
2015-Feb-28 12:33N 39°13' E 009°04'0 0.0
2015-Feb-28 11:33N 39°13' E 009°04'0 0.0
2015-Feb-28 10:33N 39°13' E 009°04'0 0.0
2015-Feb-28 09:33N 39°13' E 009°04'0 0.0
2015-Feb-28 08:33N 39°13' E 009°04'0 0.0
2015-Feb-28 07:33N 39°13' E 009°04'0 0.0
2015-Feb-28 06:33N 39°13' E 009°04'0 0.4
2015-Feb-28 05:33N 39°13' E 009°05'5 4.5
2015-Feb-28 04:33N 39°08' E 009°07'7 7.1
2015-Feb-28 03:33N 39°04' E 009°14'7 7.2
2015-Feb-28 02:33N 38°59' E 009°21'13816.8
2015-Feb-27 18:21N 37°44' E 011°49'9516.2
2015-Feb-27 12:29N 36°50' E 013°26'53315.1
2015-Feb-26 01:08N 37°47' E 024°32'  
2015-Feb-23 18:22N 37°41' E 025°46'1416.2
2015-Feb-23 17:31N 37°28' E 025°52'3416.2
2015-Feb-23 15:25N 36°58' E 026°12'  

Dump ship's entire track history